createdAt,value
2022-12-15T00:01:03.051Z,44.94
2022-12-15T00:06:25.191Z,46.43
2022-12-15T00:11:46.971Z,48.44
2022-12-15T00:17:09.854Z,48.91
2022-12-15T00:22:31.715Z,49.73
2022-12-15T00:27:53.323Z,49.28
2022-12-15T00:33:15.666Z,49.31
2022-12-15T00:38:37.017Z,50.26
2022-12-15T00:43:40.673Z,50.81
2022-12-15T00:48:44.562Z,51.98
2022-12-15T00:54:07.251Z,53.48
2022-12-15T00:59:30.117Z,54.11
2022-12-15T01:04:51.708Z,54.87
2022-12-15T01:10:13.753Z,55.21
2022-12-15T01:15:35.276Z,56.62
2022-12-15T01:20:38.388Z,56.91
2022-12-15T01:25:42.602Z,58.53
2022-12-15T01:30:46.379Z,57.10
2022-12-15T01:35:58.357Z,56.02
2022-12-15T01:41:07.575Z,52.95
2022-12-15T01:46:14.200Z,47.39
2022-12-15T01:51:29.175Z,43.86
2022-12-15T01:56:38.403Z,41.83
2022-12-15T02:01:44.237Z,40.24
2022-12-15T02:06:53.910Z,39.14
2022-12-15T02:12:15.099Z,37.82
2022-12-15T02:17:39.810Z,39.61
2022-12-15T02:23:07.887Z,37.39
2022-12-15T02:28:18.732Z,37.47
2022-12-15T02:33:30.719Z,39.81
2022-12-15T02:38:37.625Z,37.80
2022-12-15T02:43:43.317Z,37.91
2022-12-15T02:49:02.799Z,38.85
2022-12-15T02:54:06.491Z,37.76
2022-12-15T02:59:31.262Z,44.92
2022-12-15T03:04:34.496Z,54.05
2022-12-15T03:09:38.125Z,49.33
2022-12-15T03:14:41.161Z,46.21
2022-12-15T03:19:44.208Z,43.89
2022-12-15T03:24:47.349Z,43.77
2022-12-15T03:29:50.839Z,44.77
2022-12-15T03:34:53.832Z,45.17
2022-12-15T03:39:57.892Z,43.21
2022-12-15T03:45:01.945Z,44.30
2022-12-15T03:50:06.086Z,45.28
2022-12-15T03:55:10.314Z,45.97
2022-12-15T04:00:18.836Z,44.98
2022-12-15T04:05:25.961Z,47.12
2022-12-15T04:10:34.769Z,45.92
2022-12-15T04:15:39.679Z,44.29
2022-12-15T04:20:43.390Z,43.92
2022-12-15T04:26:04.787Z,44.16
2022-12-15T04:31:28.684Z,44.94
2022-12-15T04:36:51.333Z,46.01
2022-12-15T04:42:16.413Z,42.91
2022-12-15T04:47:37.967Z,42.27
2022-12-15T04:52:59.787Z,41.83
2022-12-15T04:58:28.301Z,41.59
2022-12-15T05:03:50.008Z,40.78
2022-12-15T05:09:12.240Z,42.19
2022-12-15T05:14:34.157Z,42.92
2022-12-15T05:19:56.163Z,44.70
2022-12-15T05:25:17.797Z,45.51
2022-12-15T05:30:40.119Z,46.50
2022-12-15T05:35:43.738Z,48.96
2022-12-15T05:40:46.747Z,49.76
2022-12-15T05:45:49.780Z,51.43
2022-12-15T05:50:53.212Z,52.20
2022-12-15T05:56:02.692Z,52.99
2022-12-15T06:01:12.582Z,53.13
2022-12-15T06:06:16.221Z,53.41
2022-12-15T06:11:21.613Z,53.19
2022-12-15T06:16:28.293Z,53.06
2022-12-15T06:21:33.066Z,53.41
2022-12-15T06:26:38.299Z,53.73
2022-12-15T06:31:43.397Z,53.01
2022-12-15T06:36:46.608Z,52.84
2022-12-15T06:41:49.963Z,52.66
2022-12-15T06:46:53.213Z,52.68
2022-12-15T06:51:56.362Z,52.64
2022-12-15T06:56:59.486Z,58.91
2022-12-15T07:02:03.045Z,69.28
2022-12-15T07:07:06.664Z,70.26
2022-12-15T07:12:12.725Z,72.57
2022-12-15T07:17:15.858Z,70.02
2022-12-15T07:22:20.600Z,67.07
2022-12-15T07:27:23.910Z,67.22
2022-12-15T07:32:26.961Z,60.85
2022-12-15T07:37:30.413Z,50.32
2022-12-15T07:42:33.633Z,53.29
2022-12-15T07:47:37.368Z,52.88
2022-12-15T07:52:40.969Z,54.54
2022-12-15T07:57:44.637Z,55.99
2022-12-15T08:02:47.826Z,50.63
2022-12-15T08:07:53.857Z,49.77
2022-12-15T08:12:57.469Z,45.73
2022-12-15T08:18:01.256Z,47.77
2022-12-15T08:23:05.077Z,48.96
2022-12-15T08:28:08.561Z,48.75
2022-12-15T08:33:13.098Z,46.56
2022-12-15T08:38:16.206Z,42.70
2022-12-15T08:43:19.710Z,43.12
2022-12-15T08:48:23.321Z,43.55
2022-12-15T08:53:31.871Z,42.55
2022-12-15T08:58:35.878Z,38.68
2022-12-15T09:03:39.743Z,39.13
2022-12-15T09:08:43.185Z,38.81
2022-12-15T09:13:46.673Z,38.23
2022-12-15T09:18:55.356Z,38.40
2022-12-15T09:24:02.106Z,38.58
2022-12-15T09:29:05.516Z,37.77
2022-12-15T09:34:13.410Z,36.08
2022-12-15T09:39:17.371Z,37.33
2022-12-15T09:44:23.427Z,34.86
2022-12-15T09:49:53.951Z,36.64
2022-12-15T09:54:59.461Z,36.83
2022-12-15T10:00:12.425Z,35.88
2022-12-15T10:05:57.708Z,38.30
2022-12-15T10:11:21.960Z,37.48
2022-12-15T10:16:55.002Z,37.46
2022-12-15T10:21:59.364Z,37.24
2022-12-15T10:27:19.695Z,37.60
2022-12-15T10:32:43.049Z,36.14
2022-12-15T10:37:46.615Z,37.10
2022-12-15T10:42:53.484Z,38.12
2022-12-15T10:47:59.524Z,38.96
2022-12-15T10:53:09.358Z,39.86
2022-12-15T10:58:22.017Z,40.43
2022-12-15T11:03:28.081Z,42.08
2022-12-15T11:08:33.183Z,41.22
2022-12-15T11:13:37.005Z,41.47
2022-12-15T11:18:54.299Z,40.39
2022-12-15T11:24:14.354Z,43.22
2022-12-15T11:29:25.229Z,41.58
2022-12-15T11:34:40.651Z,43.12
2022-12-15T11:40:22.160Z,43.89
2022-12-15T11:45:27.628Z,43.42
2022-12-15T11:50:57.935Z,42.21
2022-12-15T11:56:55.474Z,42.39
2022-12-15T12:02:04.257Z,41.87
2022-12-15T12:07:14.075Z,41.52
2022-12-15T12:12:39.468Z,42.14
2022-12-15T12:17:53.918Z,42.37
2022-12-15T12:23:05.082Z,43.14
2022-12-15T12:28:20.286Z,43.59
2022-12-15T12:33:44.876Z,43.02
2022-12-15T12:38:56.356Z,43.25
2022-12-15T12:44:29.929Z,43.08
2022-12-15T12:49:41.774Z,43.09
2022-12-15T12:55:00.038Z,43.08
2022-12-15T13:00:17.186Z,43.34
2022-12-15T13:05:33.465Z,43.23
2022-12-15T13:10:42.218Z,43.60
2022-12-15T13:15:51.468Z,42.24
2022-12-15T13:20:57.482Z,43.23
2022-12-15T13:26:11.711Z,43.37
2022-12-15T13:31:18.272Z,43.74
2022-12-15T13:36:40.299Z,43.88
2022-12-15T13:47:29.864Z,43.73
2022-12-15T13:53:18.463Z,43.69
2022-12-15T13:58:24.975Z,44.91
2022-12-15T14:03:28.300Z,45.69
2022-12-15T14:08:32.346Z,46.19
2022-12-15T14:13:37.353Z,45.97
2022-12-15T14:18:44.067Z,47.83
2022-12-15T14:24:28.472Z,48.97
2022-12-15T14:29:14.561Z,50.93
2022-12-15T14:34:29.595Z,51.51
2022-12-15T14:39:38.419Z,53.08
2022-12-15T14:44:49.986Z,54.16
2022-12-15T14:49:57.905Z,55.35
2022-12-15T14:55:20.641Z,55.58
2022-12-15T15:00:26.674Z,56.77
2022-12-15T15:05:33.326Z,56.59
2022-12-15T15:10:36.565Z,57.24
2022-12-15T15:15:39.751Z,56.78
2022-12-15T15:21:03.653Z,56.80
2022-12-15T15:26:06.905Z,57.52
2022-12-15T15:31:25.260Z,58.42
2022-12-15T15:36:33.327Z,58.39
2022-12-15T15:41:36.708Z,59.06
2022-12-15T15:46:49.207Z,59.57
2022-12-15T15:51:52.573Z,59.40
2022-12-15T15:56:55.665Z,59.57
2022-12-15T16:02:00.021Z,59.07
2022-12-15T16:07:04.821Z,58.84
2022-12-15T16:12:17.346Z,58.36
2022-12-15T16:17:21.112Z,58.54
2022-12-15T16:22:25.000Z,58.13
2022-12-15T16:27:28.107Z,57.52
2022-12-15T16:32:31.561Z,56.56
2022-12-15T16:37:39.485Z,55.52
2022-12-15T16:42:43.650Z,55.54
2022-12-15T16:47:47.001Z,56.14
2022-12-15T16:52:53.693Z,56.13
2022-12-15T16:58:00.593Z,57.13
2022-12-15T17:03:04.086Z,56.62
2022-12-15T17:08:16.415Z,56.16
2022-12-15T17:13:40.580Z,57.30
2022-12-15T17:18:47.109Z,56.94
2022-12-15T17:23:53.968Z,56.67
2022-12-15T17:29:19.849Z,57.23
2022-12-15T17:34:31.637Z,57.13
2022-12-15T17:39:36.323Z,56.15
2022-12-15T17:44:40.396Z,57.07
2022-12-15T17:49:44.069Z,56.80
2022-12-15T17:54:47.393Z,56.15
2022-12-15T17:59:51.174Z,56.49
2022-12-15T18:04:55.608Z,55.37
2022-12-15T18:09:59.016Z,55.90
2022-12-15T18:15:02.699Z,55.84
2022-12-15T18:20:08.373Z,54.90
2022-12-15T18:25:28.880Z,55.85
2022-12-15T18:30:32.309Z,55.30
2022-12-15T18:35:40.492Z,55.07
2022-12-15T18:40:48.491Z,55.48
2022-12-15T18:45:52.995Z,54.89
2022-12-15T18:50:58.667Z,54.59
2022-12-15T18:56:06.039Z,54.95
2022-12-15T19:01:11.138Z,54.37
2022-12-15T19:06:27.058Z,53.47
2022-12-15T19:11:33.655Z,52.79
2022-12-15T19:16:55.355Z,52.76
2022-12-15T19:22:17.560Z,53.45
2022-12-15T19:27:23.765Z,53.10
2022-12-15T19:32:27.171Z,51.72
2022-12-15T19:37:31.675Z,51.94
2022-12-15T19:42:37.504Z,51.49
2022-12-15T19:47:40.702Z,51.86
2022-12-15T19:52:47.362Z,53.09
2022-12-15T19:57:50.428Z,52.72
2022-12-15T20:02:55.907Z,51.86
2022-12-15T20:08:00.102Z,52.96
2022-12-15T20:13:03.820Z,52.72
2022-12-15T20:18:06.985Z,51.78
2022-12-15T20:23:32.134Z,52.37
2022-12-15T20:28:35.473Z,51.51
2022-12-15T20:33:38.874Z,51.74
2022-12-15T20:38:43.348Z,52.08
2022-12-15T20:43:47.434Z,51.95
2022-12-15T20:48:52.394Z,51.58
2022-12-15T20:53:58.746Z,51.29
2022-12-15T20:59:02.428Z,52.02
2022-12-15T21:04:26.282Z,51.62
2022-12-15T21:09:29.381Z,50.91
2022-12-15T21:14:32.462Z,51.38
2022-12-15T21:19:36.093Z,51.45
2022-12-15T21:24:39.309Z,51.82
2022-12-15T21:29:47.287Z,52.34
2022-12-15T21:34:54.078Z,52.41
2022-12-15T21:39:59.766Z,52.64
2022-12-15T21:45:13.128Z,52.44
2022-12-15T21:50:18.909Z,52.78
2022-12-15T21:55:26.769Z,52.20
2022-12-15T22:00:29.764Z,52.59
2022-12-15T22:05:32.912Z,51.98
2022-12-15T22:10:36.470Z,52.82
2022-12-15T22:15:40.087Z,52.36
2022-12-15T22:20:45.887Z,52.27
2022-12-15T22:25:54.639Z,52.06
2022-12-15T22:30:58.687Z,51.94
2022-12-15T22:36:01.894Z,51.46
2022-12-15T22:41:07.260Z,52.10
2022-12-15T22:46:13.987Z,52.00
2022-12-15T22:51:17.818Z,51.07
2022-12-15T22:56:33.496Z,51.73
2022-12-15T23:01:36.830Z,52.09
2022-12-15T23:06:41.393Z,51.70
2022-12-15T23:11:45.521Z,52.10
2022-12-15T23:16:49.103Z,50.90
2022-12-15T23:21:52.618Z,50.76
2022-12-15T23:26:56.957Z,51.30
2022-12-15T23:32:00.762Z,51.11
2022-12-15T23:37:04.296Z,52.09
2022-12-15T23:42:07.343Z,52.90
2022-12-15T23:47:11.346Z,52.22
2022-12-15T23:52:14.452Z,52.16
2022-12-15T23:57:18.182Z,51.00
